createdAt,value
2022-11-02T00:01:45.539Z,8.61
2022-11-02T00:06:47.290Z,8.62
2022-11-02T00:11:48.916Z,8.58
2022-11-02T00:16:50.819Z,8.53
2022-11-02T00:21:52.882Z,8.49
2022-11-02T00:26:55.163Z,8.40
2022-11-02T00:31:56.794Z,8.32
2022-11-02T00:36:58.598Z,8.17
2022-11-02T00:42:00.293Z,8.33
2022-11-02T00:47:01.904Z,8.26
2022-11-02T00:52:03.798Z,8.24
2022-11-02T00:57:05.545Z,8.19
2022-11-02T01:02:08.084Z,8.19
2022-11-02T01:07:09.959Z,8.18
2022-11-02T01:12:11.547Z,8.14
2022-11-02T01:17:13.232Z,8.15
2022-11-02T01:22:15.995Z,8.19
2022-11-02T01:27:17.600Z,8.07
2022-11-02T01:32:19.610Z,7.94
2022-11-02T01:37:21.458Z,7.92
2022-11-02T01:42:25.369Z,7.71
2022-11-02T01:47:35.195Z,7.64
2022-11-02T01:52:38.075Z,7.71
2022-11-02T01:57:41.421Z,7.59
2022-11-02T02:02:47.538Z,7.53
2022-11-02T02:07:50.373Z,7.49
2022-11-02T02:12:52.599Z,7.54
2022-11-02T02:18:01.276Z,7.62
2022-11-02T02:23:13.930Z,7.58
2022-11-02T02:28:25.206Z,7.60
2022-11-02T02:33:33.391Z,7.63
2022-11-02T02:38:44.671Z,7.52
2022-11-02T02:43:50.798Z,7.58
2022-11-02T02:48:54.628Z,7.61
2022-11-02T02:54:03.453Z,7.54
2022-11-02T02:59:08.105Z,7.46
2022-11-02T03:04:12.682Z,7.47
2022-11-02T03:09:23.883Z,7.41
2022-11-02T03:14:40.423Z,7.36
2022-11-02T03:19:55.648Z,7.22
2022-11-02T03:25:17.799Z,7.23
2022-11-02T03:30:23.287Z,7.12
2022-11-02T03:35:34.829Z,7.08
2022-11-02T03:40:44.331Z,7.11
2022-11-02T03:45:58.185Z,7.21
2022-11-02T03:51:05.290Z,7.16
2022-11-02T03:56:10.229Z,7.07
2022-11-02T04:01:15.156Z,6.92
2022-11-02T04:06:17.860Z,6.90
2022-11-02T04:11:38.326Z,6.84
2022-11-02T04:16:44.207Z,6.84
2022-11-02T04:22:17.189Z,6.82
2022-11-02T04:27:22.770Z,6.86
2022-11-02T04:32:44.784Z,6.90
2022-11-02T04:38:08.735Z,6.93
2022-11-02T04:43:13.655Z,6.90
2022-11-02T04:48:15.948Z,6.81
2022-11-02T04:53:17.856Z,6.78
2022-11-02T04:58:20.292Z,6.79
2022-11-02T05:03:22.696Z,6.74
2022-11-02T05:08:24.406Z,6.77
2022-11-02T05:13:26.879Z,6.64
2022-11-02T05:18:31.826Z,6.61
2022-11-02T05:23:33.540Z,6.60
2022-11-02T05:28:36.122Z,6.56
2022-11-02T05:33:39.741Z,6.50
2022-11-02T05:38:55.625Z,6.51
2022-11-02T05:43:58.028Z,6.50
2022-11-02T05:49:02.693Z,6.43
2022-11-02T05:54:04.540Z,6.49
2022-11-02T05:59:06.191Z,6.44
2022-11-02T06:04:08.029Z,6.48
2022-11-02T06:09:09.732Z,6.48
2022-11-02T06:14:11.452Z,6.43
2022-11-02T06:19:16.131Z,6.41
2022-11-02T06:24:17.841Z,6.38
2022-11-02T06:29:19.454Z,6.41
2022-11-02T06:34:21.033Z,6.56
2022-11-02T06:39:22.811Z,6.74
2022-11-02T06:44:24.488Z,6.85
2022-11-02T06:49:26.121Z,6.99
2022-11-02T06:54:27.715Z,7.09
2022-11-02T06:59:29.310Z,7.21
2022-11-02T07:04:30.931Z,7.25
2022-11-02T07:09:35.931Z,7.30
2022-11-02T07:14:37.545Z,7.28
2022-11-02T07:19:39.181Z,7.25
2022-11-02T07:24:40.844Z,7.31
2022-11-02T07:29:42.485Z,7.40
2022-11-02T07:34:44.067Z,7.59
2022-11-02T07:39:45.673Z,7.86
2022-11-02T07:44:47.317Z,8.09
2022-11-02T07:49:49.137Z,8.30
2022-11-02T07:54:50.762Z,8.50
2022-11-02T07:59:52.349Z,8.77
2022-11-02T08:04:53.933Z,9.05
2022-11-02T08:09:55.556Z,9.33
2022-11-02T08:14:59.009Z,9.56
2022-11-02T08:20:03.052Z,9.80
2022-11-02T08:25:05.513Z,9.95
2022-11-02T08:30:08.014Z,10.15
2022-11-02T08:35:09.706Z,10.37
2022-11-02T08:40:11.864Z,10.67
2022-11-02T08:45:13.539Z,12.04
2022-11-02T08:50:15.215Z,12.91
2022-11-02T08:55:17.118Z,13.17
2022-11-02T09:00:20.584Z,13.24
2022-11-02T09:05:22.223Z,13.27
2022-11-02T09:10:23.888Z,13.42
2022-11-02T09:15:25.502Z,13.64
2022-11-02T09:20:27.216Z,13.79
2022-11-02T09:25:28.891Z,13.93
2022-11-02T09:30:30.558Z,14.05
2022-11-02T09:35:34.544Z,14.13
2022-11-02T09:40:59.339Z,14.23
2022-11-02T09:46:08.360Z,14.37
2022-11-02T09:51:19.002Z,14.51
2022-11-02T09:56:20.876Z,14.56
2022-11-02T10:01:34.846Z,14.63
2022-11-02T10:06:37.995Z,14.45
2022-11-02T10:11:55.258Z,14.27
2022-11-02T10:16:59.520Z,14.23
2022-11-02T10:22:01.283Z,14.23
2022-11-02T10:27:13.875Z,14.37
2022-11-02T10:32:16.341Z,14.58
2022-11-02T10:37:37.487Z,15.05
2022-11-02T10:43:01.092Z,15.04
2022-11-02T10:48:38.338Z,14.98
2022-11-02T10:53:42.728Z,14.98
2022-11-02T10:58:51.400Z,15.00
2022-11-02T11:04:03.030Z,14.94
2022-11-02T11:09:20.317Z,14.72
2022-11-02T11:19:52.609Z,14.92
2022-11-02T11:25:27.644Z,14.86
2022-11-02T11:35:56.664Z,14.40
2022-11-02T11:40:59.652Z,14.24
2022-11-02T11:46:06.478Z,14.19
2022-11-02T11:51:31.821Z,14.06
2022-11-02T11:56:33.988Z,14.03
2022-11-02T12:01:40.024Z,14.14
2022-11-02T12:07:15.777Z,14.46
2022-11-02T12:12:30.487Z,14.67
2022-11-02T12:17:55.461Z,14.63
2022-11-02T12:23:15.309Z,14.45
2022-11-02T12:28:50.758Z,14.38
2022-11-02T12:34:10.669Z,14.43
2022-11-02T12:39:35.460Z,14.48
2022-11-02T12:45:01.925Z,14.48
2022-11-02T12:50:24.531Z,14.60
2022-11-02T12:55:37.302Z,14.68
2022-11-02T13:00:43.057Z,14.48
2022-11-02T13:05:54.230Z,14.36
2022-11-02T13:10:59.280Z,14.29
2022-11-02T13:16:01.436Z,14.32
2022-11-02T13:21:04.308Z,14.34
2022-11-02T13:26:27.517Z,14.33
2022-11-02T13:31:44.902Z,14.51
2022-11-02T13:36:47.030Z,14.45
2022-11-02T13:42:25.643Z,14.37
2022-11-02T13:47:33.225Z,14.27
2022-11-02T13:52:40.983Z,14.15
2022-11-02T13:58:03.127Z,14.05
2022-11-02T14:03:08.132Z,13.98
2022-11-02T14:08:11.550Z,13.89
2022-11-02T14:13:13.822Z,13.85
2022-11-02T14:18:27.084Z,13.84
2022-11-02T14:23:35.319Z,13.99
2022-11-02T14:28:43.650Z,14.01
2022-11-02T14:34:08.400Z,13.90
2022-11-02T14:39:12.731Z,13.93
2022-11-02T14:44:24.139Z,13.85
2022-11-02T14:49:28.326Z,13.75
2022-11-02T14:54:32.495Z,13.68
2022-11-02T14:59:38.374Z,13.55
2022-11-02T15:04:46.338Z,13.47
2022-11-02T15:09:59.216Z,13.22
2022-11-02T15:15:05.952Z,12.97
2022-11-02T15:20:16.708Z,12.88
2022-11-02T15:25:24.407Z,12.62
2022-11-02T15:30:28.558Z,12.44
2022-11-02T15:35:34.895Z,12.28
2022-11-02T15:40:46.685Z,12.43
2022-11-02T15:46:14.018Z,12.28
2022-11-02T15:51:19.708Z,12.11
2022-11-02T15:56:45.938Z,12.04
2022-11-02T16:02:02.652Z,11.87
2022-11-02T16:07:05.581Z,11.77
2022-11-02T16:12:21.567Z,11.83
2022-11-02T16:17:24.686Z,11.91
2022-11-02T16:22:26.947Z,11.85
2022-11-02T16:27:28.555Z,11.71
2022-11-02T16:32:30.284Z,11.63
2022-11-02T16:37:32.424Z,11.51
2022-11-02T16:42:34.034Z,11.22
2022-11-02T16:47:40.595Z,10.96
2022-11-02T16:52:42.217Z,10.75
2022-11-02T16:57:45.134Z,10.57
2022-11-02T17:02:47.437Z,10.59
2022-11-02T17:08:01.233Z,10.43
2022-11-02T17:13:07.187Z,10.30
2022-11-02T17:18:09.154Z,10.16
2022-11-02T17:23:31.849Z,10.03
2022-11-02T17:28:33.373Z,9.99
2022-11-02T17:33:35.135Z,9.97
2022-11-02T17:38:36.779Z,9.81
2022-11-02T17:43:38.377Z,9.73
2022-11-02T17:48:40.075Z,9.62
2022-11-02T17:53:42.175Z,9.55
2022-11-02T17:58:43.777Z,9.52
2022-11-02T18:03:45.419Z,9.48
2022-11-02T18:09:05.662Z,9.39
2022-11-02T18:14:13.399Z,9.33
2022-11-02T18:19:16.757Z,9.25
2022-11-02T18:24:18.935Z,9.11
2022-11-02T18:29:20.557Z,8.96
2022-11-02T18:34:22.148Z,9.00
2022-11-02T18:39:23.761Z,9.01
2022-11-02T18:44:25.349Z,8.93
2022-11-02T18:49:26.976Z,8.80
2022-11-02T18:54:28.573Z,8.74
2022-11-02T18:59:30.243Z,8.63
2022-11-02T19:04:32.500Z,8.56
2022-11-02T19:09:35.878Z,8.53
2022-11-02T19:14:42.360Z,8.50
2022-11-02T19:19:45.487Z,8.54
2022-11-02T19:24:47.364Z,8.56
2022-11-02T19:29:49.236Z,8.46
2022-11-02T19:34:50.811Z,8.33
2022-11-02T19:39:52.389Z,8.33
2022-11-02T19:44:53.955Z,8.27
2022-11-02T19:49:55.604Z,8.27
2022-11-02T19:54:57.300Z,8.48
2022-11-02T19:59:58.917Z,8.54
2022-11-02T20:05:00.547Z,8.55
2022-11-02T20:10:02.156Z,8.52
2022-11-02T20:15:04.545Z,8.48
2022-11-02T20:20:06.760Z,8.43
2022-11-02T20:25:08.861Z,8.28
2022-11-02T20:30:11.604Z,8.16
2022-11-02T20:35:13.951Z,8.10
2022-11-02T20:40:16.009Z,8.04
2022-11-02T20:45:18.399Z,8.06
2022-11-02T20:50:24.803Z,8.04
2022-11-02T20:55:27.584Z,8.03
2022-11-02T21:00:29.240Z,8.04
2022-11-02T21:05:30.957Z,8.00
2022-11-02T21:10:32.563Z,7.85
2022-11-02T21:15:37.194Z,7.85
2022-11-02T21:20:38.964Z,7.88
2022-11-02T21:25:40.632Z,7.79
2022-11-02T21:30:42.222Z,7.75
2022-11-02T21:35:43.791Z,7.82
2022-11-02T21:40:45.381Z,7.74
2022-11-02T21:45:58.564Z,7.69
2022-11-02T21:51:12.914Z,7.58
2022-11-02T21:56:19.824Z,7.44
2022-11-02T22:01:45.188Z,7.35
2022-11-02T22:06:47.751Z,7.18
2022-11-02T22:12:09.330Z,7.12
2022-11-02T22:17:21.853Z,7.03
2022-11-02T22:22:30.225Z,6.89
2022-11-02T22:27:31.858Z,6.87
2022-11-02T22:32:33.897Z,6.81
2022-11-02T22:37:53.811Z,6.73
2022-11-02T22:42:55.957Z,6.64
2022-11-02T22:47:57.550Z,6.54
2022-11-02T22:52:59.124Z,6.42
2022-11-02T22:58:00.786Z,6.37
2022-11-02T23:03:02.541Z,6.35
2022-11-02T23:08:04.496Z,6.32
2022-11-02T23:13:06.418Z,6.30
2022-11-02T23:18:08.345Z,6.32
2022-11-02T23:23:28.280Z,6.28
2022-11-02T23:28:48.448Z,6.27
2022-11-02T23:33:50.034Z,6.23
2022-11-02T23:39:09.957Z,6.23
2022-11-02T23:44:12.164Z,6.22
2022-11-02T23:49:16.810Z,6.13
2022-11-02T23:54:36.661Z,6.09
2022-11-02T23:59:38.654Z,5.91
